sensor_id;sensor_type;location;lat;lon;timestamp;temperature;humidity
2497;DHT22;1259;48.306;14.374;2023-04-15T00:02:23;4.50;99.90
2497;DHT22;1259;48.306;14.374;2023-04-15T00:04:50;4.50;99.90
2497;DHT22;1259;48.306;14.374;2023-04-15T00:07:18;4.50;99.90
2497;DHT22;1259;48.306;14.374;2023-04-15T00:09:44;4.50;99.90
2497;DHT22;1259;48.306;14.374;2023-04-15T00:12:11;4.50;99.90
2497;DHT22;1259;48.306;14.374;2023-04-15T00:14:38;4.40;99.90
2497;DHT22;1259;48.306;14.374;2023-04-15T00:17:04;4.40;99.90
2497;DHT22;1259;48.306;14.374;2023-04-15T00:19:31;4.40;99.90
2497;DHT22;1259;48.306;14.374;2023-04-15T00:21:58;4.40;99.90
2497;DHT22;1259;48.306;14.374;2023-04-15T00:24:27;4.40;99.90
2497;DHT22;1259;48.306;14.374;2023-04-15T00:26:55;4.30;99.90
2497;DHT22;1259;48.306;14.374;2023-04-15T00:29:22;4.30;99.90
2497;DHT22;1259;48.306;14.374;2023-04-15T00:31:49;4.20;99.90
2497;DHT22;1259;48.306;14.374;2023-04-15T00:34:15;4.20;99.90
2497;DHT22;1259;48.306;14.374;2023-04-15T00:36:42;4.20;99.90
2497;DHT22;1259;48.306;14.374;2023-04-15T00:39:09;4.20;99.90
2497;DHT22;1259;48.306;14.374;2023-04-15T00:41:37;4.20;99.90
2497;DHT22;1259;48.306;14.374;2023-04-15T00:44:04;4.20;99.90
2497;DHT22;1259;48.306;14.374;2023-04-15T00:46:32;4.10;99.90
2497;DHT22;1259;48.306;14.374;2023-04-15T00:49:01;4.10;99.90
2497;DHT22;1259;48.306;14.374;2023-04-15T00:51:28;4.10;99.90
2497;DHT22;1259;48.306;14.374;2023-04-15T00:53:57;4.10;99.90
2497;DHT22;1259;48.306;14.374;2023-04-15T00:56:24;4.10;99.90
2497;DHT22;1259;48.306;14.374;2023-04-15T00:58:52;4.10;99.90
2497;DHT22;1259;48.306;14.374;2023-04-15T01:01:19;4.10;99.90
2497;DHT22;1259;48.306;14.374;2023-04-15T01:03:46;4.00;99.90
2497;DHT22;1259;48.306;14.374;2023-04-15T01:06:13;4.00;99.90
2497;DHT22;1259;48.306;14.374;2023-04-15T01:08:41;4.00;99.90
2497;DHT22;1259;48.306;14.374;2023-04-15T01:11:07;3.90;99.90
2497;DHT22;1259;48.306;14.374;2023-04-15T01:13:35;3.90;99.90
2497;DHT22;1259;48.306;14.374;2023-04-15T01:16:03;3.90;99.90
2497;DHT22;1259;48.306;14.374;2023-04-15T01:18:30;3.90;99.90
2497;DHT22;1259;48.306;14.374;2023-04-15T01:20:57;3.80;99.90
2497;DHT22;1259;48.306;14.374;2023-04-15T01:23:26;3.80;99.90
2497;DHT22;1259;48.306;14.374;2023-04-15T01:25:54;3.70;99.90
2497;DHT22;1259;48.306;14.374;2023-04-15T01:28:21;3.70;99.90
2497;DHT22;1259;48.306;14.374;2023-04-15T01:30:48;3.70;99.90
2497;DHT22;1259;48.306;14.374;2023-04-15T01:33:15;3.70;99.90
2497;DHT22;1259;48.306;14.374;2023-04-15T01:35:41;3.80;99.90
2497;DHT22;1259;48.306;14.374;2023-04-15T01:38:09;3.80;99.90
2497;DHT22;1259;48.306;14.374;2023-04-15T01:40:36;3.70;99.90
2497;DHT22;1259;48.306;14.374;2023-04-15T01:43:04;3.80;99.90
2497;DHT22;1259;48.306;14.374;2023-04-15T01:45:30;3.70;99.90
2497;DHT22;1259;48.306;14.374;2023-04-15T01:47:57;3.60;99.90
2497;DHT22;1259;48.306;14.374;2023-04-15T01:50:24;3.60;99.90
2497;DHT22;1259;48.306;14.374;2023-04-15T01:52:51;3.50;99.90
2497;DHT22;1259;48.306;14.374;2023-04-15T01:55:18;3.50;99.90
2497;DHT22;1259;48.306;14.374;2023-04-15T01:57:44;3.40;99.90
2497;DHT22;1259;48.306;14.374;2023-04-15T02:00:13;3.40;99.90
2497;DHT22;1259;48.306;14.374;2023-04-15T02:02:40;3.50;99.90
2497;DHT22;1259;48.306;14.374;2023-04-15T02:05:08;3.40;99.90
2497;DHT22;1259;48.306;14.374;2023-04-15T02:07:35;3.40;99.90
2497;DHT22;1259;48.306;14.374;2023-04-15T02:10:02;3.30;99.90
2497;DHT22;1259;48.306;14.374;2023-04-15T02:12:29;3.30;99.90
2497;DHT22;1259;48.306;14.374;2023-04-15T02:14:56;3.20;99.90
2497;DHT22;1259;48.306;14.374;2023-04-15T02:17:24;3.30;99.90
2497;DHT22;1259;48.306;14.374;2023-04-15T02:19:51;3.30;99.90
2497;DHT22;1259;48.306;14.374;2023-04-15T02:22:17;3.30;99.90
2497;DHT22;1259;48.306;14.374;2023-04-15T02:24:44;3.30;99.90
2497;DHT22;1259;48.306;14.374;2023-04-15T02:27:14;3.20;99.90
2497;DHT22;1259;48.306;14.374;2023-04-15T02:29:40;3.20;99.90
2497;DHT22;1259;48.306;14.374;2023-04-15T02:32:08;3.20;99.90
2497;DHT22;1259;48.306;14.374;2023-04-15T02:34:37;3.20;99.90
2497;DHT22;1259;48.306;14.374;2023-04-15T02:37:05;3.20;99.90
2497;DHT22;1259;48.306;14.374;2023-04-15T02:39:32;3.10;99.90
2497;DHT22;1259;48.306;14.374;2023-04-15T02:41:58;3.10;99.90
2497;DHT22;1259;48.306;14.374;2023-04-15T02:44:25;3.10;99.90
2497;DHT22;1259;48.306;14.374;2023-04-15T02:46:52;3.10;99.90
2497;DHT22;1259;48.306;14.374;2023-04-15T02:49:19;3.10;99.90
2497;DHT22;1259;48.306;14.374;2023-04-15T02:51:47;3.00;99.90
2497;DHT22;1259;48.306;14.374;2023-04-15T02:54:14;3.00;99.90
2497;DHT22;1259;48.306;14.374;2023-04-15T02:56:40;3.00;99.90
2497;DHT22;1259;48.306;14.374;2023-04-15T02:59:07;3.00;99.90
2497;DHT22;1259;48.306;14.374;2023-04-15T03:01:34;3.00;99.90
2497;DHT22;1259;48.306;14.374;2023-04-15T03:04:00;3.00;99.90
2497;DHT22;1259;48.306;14.374;2023-04-15T03:06:27;3.00;99.90
2497;DHT22;1259;48.306;14.374;2023-04-15T03:08:55;3.00;99.90
2497;DHT22;1259;48.306;14.374;2023-04-15T03:11:24;2.90;99.90
2497;DHT22;1259;48.306;14.374;2023-04-15T03:13:51;2.90;99.90
2497;DHT22;1259;48.306;14.374;2023-04-15T03:16:18;2.90;99.90
2497;DHT22;1259;48.306;14.374;2023-04-15T03:18:44;2.90;99.90
2497;DHT22;1259;48.306;14.374;2023-04-15T03:21:11;2.80;99.90
2497;DHT22;1259;48.306;14.374;2023-04-15T03:23:38;2.80;99.90
2497;DHT22;1259;48.306;14.374;2023-04-15T03:26:06;2.80;99.90
2497;DHT22;1259;48.306;14.374;2023-04-15T03:28:32;2.80;99.90
2497;DHT22;1259;48.306;14.374;2023-04-15T03:30:59;2.80;99.90
2497;DHT22;1259;48.306;14.374;2023-04-15T03:33:26;2.80;99.90
2497;DHT22;1259;48.306;14.374;2023-04-15T03:35:52;2.80;99.90
2497;DHT22;1259;48.306;14.374;2023-04-15T03:38:19;2.80;99.90
2497;DHT22;1259;48.306;14.374;2023-04-15T03:40:46;2.80;99.90
2497;DHT22;1259;48.306;14.374;2023-04-15T03:43:14;2.80;99.90
2497;DHT22;1259;48.306;14.374;2023-04-15T03:45:41;2.80;99.90
2497;DHT22;1259;48.306;14.374;2023-04-15T03:48:07;2.80;99.90
2497;DHT22;1259;48.306;14.374;2023-04-15T03:50:34;2.80;99.90
2497;DHT22;1259;48.306;14.374;2023-04-15T03:53:01;2.80;99.90
2497;DHT22;1259;48.306;14.374;2023-04-15T03:55:27;2.80;99.90
2497;DHT22;1259;48.306;14.374;2023-04-15T03:57:54;2.80;99.90
2497;DHT22;1259;48.306;14.374;2023-04-15T04:00:22;2.80;99.90
2497;DHT22;1259;48.306;14.374;2023-04-15T04:02:49;2.80;99.90
2497;DHT22;1259;48.306;14.374;2023-04-15T04:05:16;2.90;99.90
2497;DHT22;1259;48.306;14.374;2023-04-15T04:07:43;2.90;99.90
2497;DHT22;1259;48.306;14.374;2023-04-15T04:10:09;2.90;99.90
2497;DHT22;1259;48.306;14.374;2023-04-15T04:12:36;2.90;99.90
2497;DHT22;1259;48.306;14.374;2023-04-15T04:15:03;2.90;99.90
2497;DHT22;1259;48.306;14.374;2023-04-15T04:17:32;2.90;99.90
2497;DHT22;1259;48.306;14.374;2023-04-15T04:19:59;2.90;99.90
2497;DHT22;1259;48.306;14.374;2023-04-15T04:22:25;2.90;99.90
2497;DHT22;1259;48.306;14.374;2023-04-15T04:24:52;2.90;99.90
2497;DHT22;1259;48.306;14.374;2023-04-15T04:27:19;2.90;99.90
2497;DHT22;1259;48.306;14.374;2023-04-15T04:29:46;2.90;99.90
2497;DHT22;1259;48.306;14.374;2023-04-15T04:32:14;2.90;99.90
2497;DHT22;1259;48.306;14.374;2023-04-15T04:34:42;2.90;99.90
2497;DHT22;1259;48.306;14.374;2023-04-15T04:37:09;2.90;99.90
2497;DHT22;1259;48.306;14.374;2023-04-15T04:39:35;3.00;99.90
2497;DHT22;1259;48.306;14.374;2023-04-15T04:42:02;3.00;99.90
2497;DHT22;1259;48.306;14.374;2023-04-15T04:44:29;3.00;99.90
2497;DHT22;1259;48.306;14.374;2023-04-15T04:46:55;3.00;99.90
2497;DHT22;1259;48.306;14.374;2023-04-15T04:49:22;3.00;99.90
2497;DHT22;1259;48.306;14.374;2023-04-15T04:51:50;3.00;99.90
2497;DHT22;1259;48.306;14.374;2023-04-15T04:54:17;3.00;99.90
2497;DHT22;1259;48.306;14.374;2023-04-15T04:56:44;3.00;99.90
2497;DHT22;1259;48.306;14.374;2023-04-15T04:59:10;3.00;99.90
2497;DHT22;1259;48.306;14.374;2023-04-15T05:01:37;3.00;99.90
2497;DHT22;1259;48.306;14.374;2023-04-15T05:04:04;3.00;99.90
2497;DHT22;1259;48.306;14.374;2023-04-15T05:06:31;3.10;99.90
2497;DHT22;1259;48.306;14.374;2023-04-15T05:09:01;3.00;99.90
2497;DHT22;1259;48.306;14.374;2023-04-15T05:11:28;3.10;99.90
2497;DHT22;1259;48.306;14.374;2023-04-15T05:13:55;3.10;99.90
2497;DHT22;1259;48.306;14.374;2023-04-15T05:16:22;3.10;99.90
2497;DHT22;1259;48.306;14.374;2023-04-15T05:18:50;3.10;99.90
2497;DHT22;1259;48.306;14.374;2023-04-15T05:21:16;3.10;99.90
2497;DHT22;1259;48.306;14.374;2023-04-15T05:23:43;3.10;99.90
2497;DHT22;1259;48.306;14.374;2023-04-15T05:26:11;3.10;99.90
2497;DHT22;1259;48.306;14.374;2023-04-15T05:28:38;3.10;99.90
2497;DHT22;1259;48.306;14.374;2023-04-15T05:31:05;3.10;99.90
2497;DHT22;1259;48.306;14.374;2023-04-15T05:33:32;3.20;99.90
2497;DHT22;1259;48.306;14.374;2023-04-15T05:35:58;3.20;99.90
2497;DHT22;1259;48.306;14.374;2023-04-15T05:38:25;3.20;99.90
2497;DHT22;1259;48.306;14.374;2023-04-15T05:40:52;3.20;99.90
2497;DHT22;1259;48.306;14.374;2023-04-15T05:43:20;3.20;99.90
2497;DHT22;1259;48.306;14.374;2023-04-15T05:45:46;3.20;99.90
2497;DHT22;1259;48.306;14.374;2023-04-15T05:48:13;3.20;99.90
2497;DHT22;1259;48.306;14.374;2023-04-15T05:50:40;3.20;99.90
2497;DHT22;1259;48.306;14.374;2023-04-15T05:53:07;3.20;99.90
2497;DHT22;1259;48.306;14.374;2023-04-15T05:55:34;3.20;99.90
2497;DHT22;1259;48.306;14.374;2023-04-15T05:58:00;3.20;99.90
2497;DHT22;1259;48.306;14.374;2023-04-15T06:00:29;3.30;99.90
2497;DHT22;1259;48.306;14.374;2023-04-15T06:02:56;3.20;99.90
2497;DHT22;1259;48.306;14.374;2023-04-15T06:05:23;3.20;99.90
2497;DHT22;1259;48.306;14.374;2023-04-15T06:07:49;3.20;99.90
2497;DHT22;1259;48.306;14.374;2023-04-15T06:10:16;3.30;99.90
2497;DHT22;1259;48.306;14.374;2023-04-15T06:12:43;3.30;99.90
2497;DHT22;1259;48.306;14.374;2023-04-15T06:15:10;3.30;99.90
2497;DHT22;1259;48.306;14.374;2023-04-15T06:17:38;3.30;99.90
2497;DHT22;1259;48.306;14.374;2023-04-15T06:20:05;3.30;99.90
2497;DHT22;1259;48.306;14.374;2023-04-15T06:22:32;3.30;99.90
2497;DHT22;1259;48.306;14.374;2023-04-15T06:24:59;3.30;99.90
2497;DHT22;1259;48.306;14.374;2023-04-15T06:27:26;3.30;99.90
2497;DHT22;1259;48.306;14.374;2023-04-15T06:29:52;3.30;99.90
2497;DHT22;1259;48.306;14.374;2023-04-15T06:32:19;3.40;99.90
2497;DHT22;1259;48.306;14.374;2023-04-15T06:34:47;3.40;99.90
2497;DHT22;1259;48.306;14.374;2023-04-15T06:37:14;3.40;99.90
2497;DHT22;1259;48.306;14.374;2023-04-15T06:39:40;3.40;99.90
2497;DHT22;1259;48.306;14.374;2023-04-15T06:42:09;3.40;99.90
2497;DHT22;1259;48.306;14.374;2023-04-15T06:44:36;3.40;99.90
2497;DHT22;1259;48.306;14.374;2023-04-15T06:47:03;3.40;99.90
2497;DHT22;1259;48.306;14.374;2023-04-15T06:49:29;3.50;99.90
2497;DHT22;1259;48.306;14.374;2023-04-15T06:51:57;3.40;99.90
2497;DHT22;1259;48.306;14.374;2023-04-15T06:54:24;3.40;99.90
2497;DHT22;1259;48.306;14.374;2023-04-15T06:56:51;3.40;99.90
2497;DHT22;1259;48.306;14.374;2023-04-15T06:59:18;3.50;99.90
2497;DHT22;1259;48.306;14.374;2023-04-15T07:01:45;3.50;99.90
2497;DHT22;1259;48.306;14.374;2023-04-15T07:04:11;3.40;99.90
2497;DHT22;1259;48.306;14.374;2023-04-15T07:06:38;3.50;99.90
2497;DHT22;1259;48.306;14.374;2023-04-15T07:09:07;3.50;99.90
2497;DHT22;1259;48.306;14.374;2023-04-15T07:11:34;3.50;99.90
2497;DHT22;1259;48.306;14.374;2023-04-15T07:14:00;3.50;99.90
2497;DHT22;1259;48.306;14.374;2023-04-15T07:16:28;3.50;99.90
2497;DHT22;1259;48.306;14.374;2023-04-15T07:18:54;3.60;99.90
2497;DHT22;1259;48.306;14.374;2023-04-15T07:21:21;3.60;99.90
2497;DHT22;1259;48.306;14.374;2023-04-15T07:23:48;3.60;99.90
2497;DHT22;1259;48.306;14.374;2023-04-15T07:26:16;3.60;99.90
2497;DHT22;1259;48.306;14.374;2023-04-15T07:28:43;3.60;99.90
2497;DHT22;1259;48.306;14.374;2023-04-15T07:31:10;3.60;99.90
2497;DHT22;1259;48.306;14.374;2023-04-15T07:33:37;3.60;99.90
2497;DHT22;1259;48.306;14.374;2023-04-15T07:36:04;3.60;99.90
2497;DHT22;1259;48.306;14.374;2023-04-15T07:38:30;3.60;99.90
2497;DHT22;1259;48.306;14.374;2023-04-15T07:40:57;3.60;99.90
2497;DHT22;1259;48.306;14.374;2023-04-15T07:43:25;3.50;99.90
2497;DHT22;1259;48.306;14.374;2023-04-15T07:45:52;3.60;99.90
2497;DHT22;1259;48.306;14.374;2023-04-15T07:48:19;3.60;99.90
2497;DHT22;1259;48.306;14.374;2023-04-15T07:50:46;3.60;99.90
2497;DHT22;1259;48.306;14.374;2023-04-15T07:53:13;3.50;99.90
2497;DHT22;1259;48.306;14.374;2023-04-15T07:55:39;3.50;99.90
2497;DHT22;1259;48.306;14.374;2023-04-15T07:58:06;3.50;99.90
2497;DHT22;1259;48.306;14.374;2023-04-15T08:00:34;3.50;99.90
2497;DHT22;1259;48.306;14.374;2023-04-15T08:03:02;3.50;99.90
2497;DHT22;1259;48.306;14.374;2023-04-15T08:05:29;3.50;99.90
2497;DHT22;1259;48.306;14.374;2023-04-15T08:07:56;3.50;99.90
2497;DHT22;1259;48.306;14.374;2023-04-15T08:10:22;3.50;99.90
2497;DHT22;1259;48.306;14.374;2023-04-15T08:12:49;3.60;99.90
2497;DHT22;1259;48.306;14.374;2023-04-15T08:15:18;3.50;99.90
2497;DHT22;1259;48.306;14.374;2023-04-15T08:17:46;3.60;99.90
2497;DHT22;1259;48.306;14.374;2023-04-15T08:20:13;3.60;99.90
2497;DHT22;1259;48.306;14.374;2023-04-15T08:22:40;3.60;99.90
2497;DHT22;1259;48.306;14.374;2023-04-15T08:25:07;3.60;99.90
2497;DHT22;1259;48.306;14.374;2023-04-15T08:27:34;3.50;99.90
2497;DHT22;1259;48.306;14.374;2023-04-15T08:30:01;3.50;99.90
2497;DHT22;1259;48.306;14.374;2023-04-15T08:32:28;3.50;99.90
2497;DHT22;1259;48.306;14.374;2023-04-15T08:34:56;3.40;99.90
2497;DHT22;1259;48.306;14.374;2023-04-15T08:37:23;3.50;99.90
2497;DHT22;1259;48.306;14.374;2023-04-15T08:39:51;3.60;99.90
2497;DHT22;1259;48.306;14.374;2023-04-15T08:42:18;3.60;99.90
2497;DHT22;1259;48.306;14.374;2023-04-15T08:44:48;3.60;99.90
2497;DHT22;1259;48.306;14.374;2023-04-15T08:47:16;3.70;99.90
2497;DHT22;1259;48.306;14.374;2023-04-15T08:49:45;3.60;99.90
2497;DHT22;1259;48.306;14.374;2023-04-15T08:52:19;3.70;99.90
2497;DHT22;1259;48.306;14.374;2023-04-15T08:54:46;3.70;99.90
2497;DHT22;1259;48.306;14.374;2023-04-15T08:57:14;3.70;99.90
2497;DHT22;1259;48.306;14.374;2023-04-15T08:59:40;3.60;99.90
2497;DHT22;1259;48.306;14.374;2023-04-15T09:02:07;3.70;99.90
2497;DHT22;1259;48.306;14.374;2023-04-15T09:04:34;3.70;99.90
2497;DHT22;1259;48.306;14.374;2023-04-15T09:07:01;3.70;99.90
2497;DHT22;1259;48.306;14.374;2023-04-15T09:09:29;3.70;99.90
2497;DHT22;1259;48.306;14.374;2023-04-15T09:11:56;3.70;99.90
2497;DHT22;1259;48.306;14.374;2023-04-15T09:14:22;3.70;99.90
2497;DHT22;1259;48.306;14.374;2023-04-15T09:16:55;3.70;99.90
2497;DHT22;1259;48.306;14.374;2023-04-15T09:19:22;3.80;99.90
2497;DHT22;1259;48.306;14.374;2023-04-15T09:21:49;3.80;99.90
2497;DHT22;1259;48.306;14.374;2023-04-15T09:24:16;3.80;99.90
2497;DHT22;1259;48.306;14.374;2023-04-15T09:26:44;3.80;99.90
2497;DHT22;1259;48.306;14.374;2023-04-15T09:29:11;3.70;99.90
2497;DHT22;1259;48.306;14.374;2023-04-15T09:31:37;3.70;99.90
2497;DHT22;1259;48.306;14.374;2023-04-15T09:34:05;3.70;99.90
2497;DHT22;1259;48.306;14.374;2023-04-15T09:36:36;3.80;99.90
2497;DHT22;1259;48.306;14.374;2023-04-15T09:39:04;3.80;99.90
2497;DHT22;1259;48.306;14.374;2023-04-15T09:41:31;3.70;99.90
2497;DHT22;1259;48.306;14.374;2023-04-15T09:43:59;3.80;99.90
2497;DHT22;1259;48.306;14.374;2023-04-15T09:46:41;3.80;99.90
2497;DHT22;1259;48.306;14.374;2023-04-15T09:49:09;3.70;99.90
2497;DHT22;1259;48.306;14.374;2023-04-15T09:51:35;3.70;99.90
2497;DHT22;1259;48.306;14.374;2023-04-15T09:54:02;3.80;99.90
2497;DHT22;1259;48.306;14.374;2023-04-15T09:56:31;3.80;99.90
2497;DHT22;1259;48.306;14.374;2023-04-15T09:58:59;3.80;99.90
2497;DHT22;1259;48.306;14.374;2023-04-15T10:01:25;3.80;99.90
2497;DHT22;1259;48.306;14.374;2023-04-15T10:03:53;3.90;99.90
2497;DHT22;1259;48.306;14.374;2023-04-15T10:06:21;3.80;99.90
2497;DHT22;1259;48.306;14.374;2023-04-15T10:08:48;3.80;99.90
2497;DHT22;1259;48.306;14.374;2023-04-15T10:11:16;3.80;99.90
2497;DHT22;1259;48.306;14.374;2023-04-15T10:13:42;3.90;99.90
2497;DHT22;1259;48.306;14.374;2023-04-15T10:16:13;3.80;99.90
2497;DHT22;1259;48.306;14.374;2023-04-15T10:18:41;3.80;99.90
2497;DHT22;1259;48.306;14.374;2023-04-15T10:21:08;3.90;99.90
2497;DHT22;1259;48.306;14.374;2023-04-15T10:23:35;3.80;99.90
2497;DHT22;1259;48.306;14.374;2023-04-15T10:26:02;3.90;99.90
2497;DHT22;1259;48.306;14.374;2023-04-15T10:28:29;3.90;99.90
2497;DHT22;1259;48.306;14.374;2023-04-15T10:30:56;4.00;99.90
2497;DHT22;1259;48.306;14.374;2023-04-15T10:33:25;4.00;99.90
2497;DHT22;1259;48.306;14.374;2023-04-15T10:35:53;4.00;99.90
2497;DHT22;1259;48.306;14.374;2023-04-15T10:38:30;4.10;99.90
2497;DHT22;1259;48.306;14.374;2023-04-15T10:41:01;4.10;99.90
2497;DHT22;1259;48.306;14.374;2023-04-15T10:43:37;4.20;99.90
2497;DHT22;1259;48.306;14.374;2023-04-15T10:46:04;4.30;99.90
2497;DHT22;1259;48.306;14.374;2023-04-15T10:48:32;4.30;99.90
2497;DHT22;1259;48.306;14.374;2023-04-15T10:50:59;4.30;99.90
2497;DHT22;1259;48.306;14.374;2023-04-15T10:53:27;4.30;99.90
2497;DHT22;1259;48.306;14.374;2023-04-15T10:55:54;4.40;99.90
2497;DHT22;1259;48.306;14.374;2023-04-15T10:58:22;4.40;99.90
2497;DHT22;1259;48.306;14.374;2023-04-15T11:00:49;4.40;99.90
2497;DHT22;1259;48.306;14.374;2023-04-15T11:03:17;4.50;99.90
2497;DHT22;1259;48.306;14.374;2023-04-15T11:06:00;4.50;99.90
2497;DHT22;1259;48.306;14.374;2023-04-15T11:11:12;4.50;99.90
2497;DHT22;1259;48.306;14.374;2023-04-15T11:13:46;4.50;99.90
2497;DHT22;1259;48.306;14.374;2023-04-15T11:16:12;4.50;99.90
2497;DHT22;1259;48.306;14.374;2023-04-15T11:18:39;4.50;99.90
2497;DHT22;1259;48.306;14.374;2023-04-15T11:21:07;4.60;99.90
2497;DHT22;1259;48.306;14.374;2023-04-15T11:23:36;4.60;99.90
2497;DHT22;1259;48.306;14.374;2023-04-15T11:26:03;4.60;99.90
2497;DHT22;1259;48.306;14.374;2023-04-15T11:28:33;4.60;99.90
2497;DHT22;1259;48.306;14.374;2023-04-15T11:31:04;4.60;99.90
2497;DHT22;1259;48.306;14.374;2023-04-15T11:33:33;4.70;99.90
2497;DHT22;1259;48.306;14.374;2023-04-15T11:36:00;4.70;99.90
2497;DHT22;1259;48.306;14.374;2023-04-15T11:38:29;4.70;99.90
2497;DHT22;1259;48.306;14.374;2023-04-15T11:40:56;4.70;99.90
2497;DHT22;1259;48.306;14.374;2023-04-15T11:43:23;4.70;99.90
2497;DHT22;1259;48.306;14.374;2023-04-15T11:45:51;4.70;99.90
2497;DHT22;1259;48.306;14.374;2023-04-15T11:48:18;4.70;99.90
2497;DHT22;1259;48.306;14.374;2023-04-15T11:50:45;4.70;99.90
2497;DHT22;1259;48.306;14.374;2023-04-15T11:53:12;4.80;99.90
2497;DHT22;1259;48.306;14.374;2023-04-15T11:55:44;4.80;99.90
2497;DHT22;1259;48.306;14.374;2023-04-15T11:58:12;4.80;99.90
2497;DHT22;1259;48.306;14.374;2023-04-15T12:00:39;4.80;99.90
2497;DHT22;1259;48.306;14.374;2023-04-15T12:03:13;4.80;99.90
2497;DHT22;1259;48.306;14.374;2023-04-15T12:08:25;4.90;99.90
2497;DHT22;1259;48.306;14.374;2023-04-15T12:10:58;4.90;99.90
2497;DHT22;1259;48.306;14.374;2023-04-15T12:13:26;5.00;99.90
2497;DHT22;1259;48.306;14.374;2023-04-15T12:15:54;5.00;99.90
2497;DHT22;1259;48.306;14.374;2023-04-15T12:18:21;5.00;99.90
2497;DHT22;1259;48.306;14.374;2023-04-15T12:20:50;5.00;99.90
2497;DHT22;1259;48.306;14.374;2023-04-15T12:23:18;5.00;99.90
2497;DHT22;1259;48.306;14.374;2023-04-15T12:25:49;5.00;99.90
2497;DHT22;1259;48.306;14.374;2023-04-15T12:28:18;5.10;99.90
2497;DHT22;1259;48.306;14.374;2023-04-15T12:30:48;5.00;99.90
2497;DHT22;1259;48.306;14.374;2023-04-15T12:33:15;5.00;99.90
2497;DHT22;1259;48.306;14.374;2023-04-15T12:35:42;5.00;99.90
2497;DHT22;1259;48.306;14.374;2023-04-15T12:38:09;5.00;99.90
2497;DHT22;1259;48.306;14.374;2023-04-15T12:40:35;5.10;99.90
2497;DHT22;1259;48.306;14.374;2023-04-15T12:43:02;5.00;99.90
2497;DHT22;1259;48.306;14.374;2023-04-15T12:45:30;5.10;99.90
2497;DHT22;1259;48.306;14.374;2023-04-15T12:47:57;5.10;99.90
2497;DHT22;1259;48.306;14.374;2023-04-15T12:50:23;5.10;99.90
2497;DHT22;1259;48.306;14.374;2023-04-15T12:52:50;5.10;99.90
2497;DHT22;1259;48.306;14.374;2023-04-15T12:55:17;5.10;99.90
2497;DHT22;1259;48.306;14.374;2023-04-15T12:57:43;5.10;99.90
2497;DHT22;1259;48.306;14.374;2023-04-15T13:00:10;5.20;99.90
2497;DHT22;1259;48.306;14.374;2023-04-15T13:02:39;5.20;99.90
2497;DHT22;1259;48.306;14.374;2023-04-15T13:05:05;5.20;99.90
2497;DHT22;1259;48.306;14.374;2023-04-15T13:07:32;5.10;99.90
2497;DHT22;1259;48.306;14.374;2023-04-15T13:09:59;5.20;99.90
2497;DHT22;1259;48.306;14.374;2023-04-15T13:12:25;5.20;99.90
2497;DHT22;1259;48.306;14.374;2023-04-15T13:14:52;5.20;99.90
2497;DHT22;1259;48.306;14.374;2023-04-15T13:17:19;5.20;99.90
2497;DHT22;1259;48.306;14.374;2023-04-15T13:19:47;5.30;99.90
2497;DHT22;1259;48.306;14.374;2023-04-15T13:22:14;5.40;99.90
2497;DHT22;1259;48.306;14.374;2023-04-15T13:24:41;5.40;99.90
2497;DHT22;1259;48.306;14.374;2023-04-15T13:27:07;5.40;99.90
2497;DHT22;1259;48.306;14.374;2023-04-15T13:29:34;5.40;99.90
2497;DHT22;1259;48.306;14.374;2023-04-15T13:32:00;5.50;99.90
2497;DHT22;1259;48.306;14.374;2023-04-15T13:34:27;5.50;99.90
2497;DHT22;1259;48.306;14.374;2023-04-15T13:36:55;5.60;99.90
2497;DHT22;1259;48.306;14.374;2023-04-15T13:39:22;5.60;99.90
2497;DHT22;1259;48.306;14.374;2023-04-15T13:41:49;5.60;99.90
2497;DHT22;1259;48.306;14.374;2023-04-15T13:44:15;5.60;99.90
2497;DHT22;1259;48.306;14.374;2023-04-15T13:46:42;5.70;99.90
2497;DHT22;1259;48.306;14.374;2023-04-15T13:49:09;5.70;99.90
2497;DHT22;1259;48.306;14.374;2023-04-15T13:51:35;5.70;99.90
2497;DHT22;1259;48.306;14.374;2023-04-15T13:54:04;5.70;99.90
2497;DHT22;1259;48.306;14.374;2023-04-15T13:56:30;5.70;99.90
2497;DHT22;1259;48.306;14.374;2023-04-15T13:58:57;5.70;99.90
2497;DHT22;1259;48.306;14.374;2023-04-15T14:01:26;5.70;99.90
2497;DHT22;1259;48.306;14.374;2023-04-15T14:03:53;5.70;99.90
2497;DHT22;1259;48.306;14.374;2023-04-15T14:06:19;5.80;99.90
2497;DHT22;1259;48.306;14.374;2023-04-15T14:08:46;5.80;99.90
2497;DHT22;1259;48.306;14.374;2023-04-15T14:11:14;5.80;99.90
2497;DHT22;1259;48.306;14.374;2023-04-15T14:13:41;5.90;99.90
2497;DHT22;1259;48.306;14.374;2023-04-15T14:16:07;5.90;99.90
2497;DHT22;1259;48.306;14.374;2023-04-15T14:18:34;5.90;99.90
2497;DHT22;1259;48.306;14.374;2023-04-15T14:21:01;5.90;99.90
2497;DHT22;1259;48.306;14.374;2023-04-15T14:23:28;5.90;99.90
2497;DHT22;1259;48.306;14.374;2023-04-15T14:25:55;5.90;99.90
2497;DHT22;1259;48.306;14.374;2023-04-15T14:28:23;5.90;99.90
2497;DHT22;1259;48.306;14.374;2023-04-15T14:30:49;5.90;99.90
2497;DHT22;1259;48.306;14.374;2023-04-15T14:33:16;5.90;99.90
2497;DHT22;1259;48.306;14.374;2023-04-15T14:35:43;6.00;99.90
2497;DHT22;1259;48.306;14.374;2023-04-15T14:38:09;6.00;99.90
2497;DHT22;1259;48.306;14.374;2023-04-15T14:40:36;6.00;99.90
2497;DHT22;1259;48.306;14.374;2023-04-15T14:43:03;6.10;99.90
2497;DHT22;1259;48.306;14.374;2023-04-15T14:45:31;6.00;99.90
2497;DHT22;1259;48.306;14.374;2023-04-15T14:47:57;6.00;99.90
2497;DHT22;1259;48.306;14.374;2023-04-15T14:50:24;6.10;99.90
2497;DHT22;1259;48.306;14.374;2023-04-15T14:52:51;6.10;99.90
2497;DHT22;1259;48.306;14.374;2023-04-15T14:55:17;6.00;99.90
2497;DHT22;1259;48.306;14.374;2023-04-15T14:57:44;6.00;99.90
2497;DHT22;1259;48.306;14.374;2023-04-15T15:00:11;6.10;99.90
2497;DHT22;1259;48.306;14.374;2023-04-15T15:02:39;6.10;99.90
2497;DHT22;1259;48.306;14.374;2023-04-15T15:05:06;6.00;99.90
2497;DHT22;1259;48.306;14.374;2023-04-15T15:07:33;6.00;99.90
2497;DHT22;1259;48.306;14.374;2023-04-15T15:10:01;5.90;99.90
2497;DHT22;1259;48.306;14.374;2023-04-15T15:12:28;5.90;99.90
2497;DHT22;1259;48.306;14.374;2023-04-15T15:14:55;5.90;99.90
2497;DHT22;1259;48.306;14.374;2023-04-15T15:17:21;5.90;99.90
2497;DHT22;1259;48.306;14.374;2023-04-15T15:19:49;5.90;99.90
2497;DHT22;1259;48.306;14.374;2023-04-15T15:22:16;5.90;99.90
2497;DHT22;1259;48.306;14.374;2023-04-15T15:24:43;6.00;99.90
2497;DHT22;1259;48.306;14.374;2023-04-15T15:27:10;5.90;99.90
2497;DHT22;1259;48.306;14.374;2023-04-15T15:29:36;5.90;99.90
2497;DHT22;1259;48.306;14.374;2023-04-15T15:32:03;5.90;99.90
2497;DHT22;1259;48.306;14.374;2023-04-15T15:34:30;5.90;99.90
2497;DHT22;1259;48.306;14.374;2023-04-15T15:36:58;5.80;99.90
2497;DHT22;1259;48.306;14.374;2023-04-15T15:39:25;5.80;99.90
2497;DHT22;1259;48.306;14.374;2023-04-15T15:41:53;5.80;99.90
2497;DHT22;1259;48.306;14.374;2023-04-15T15:44:19;5.80;99.90
2497;DHT22;1259;48.306;14.374;2023-04-15T15:46:46;5.80;99.90
2497;DHT22;1259;48.306;14.374;2023-04-15T15:49:12;5.80;99.90
2497;DHT22;1259;48.306;14.374;2023-04-15T15:51:39;5.80;99.90
2497;DHT22;1259;48.306;14.374;2023-04-15T15:54:07;5.80;99.90
2497;DHT22;1259;48.306;14.374;2023-04-15T15:56:34;5.80;99.90
2497;DHT22;1259;48.306;14.374;2023-04-15T15:59:02;5.70;99.90
2497;DHT22;1259;48.306;14.374;2023-04-15T16:01:29;5.80;99.90
2497;DHT22;1259;48.306;14.374;2023-04-15T16:03:56;5.80;99.90
2497;DHT22;1259;48.306;14.374;2023-04-15T16:06:23;5.80;99.90
2497;DHT22;1259;48.306;14.374;2023-04-15T16:08:51;5.80;99.90